createdAt,value
2022-11-05T00:01:53.194Z,10.30
2022-11-05T00:04:42.325Z,10.00
2022-11-05T00:07:34.820Z,12.50
2022-11-05T00:10:11.135Z,11.90
2022-11-05T00:13:00.501Z,10.30
2022-11-05T00:15:49.894Z,13.00
2022-11-05T00:18:21.619Z,12.10
2022-11-05T00:20:53.259Z,9.90
2022-11-05T00:23:43.120Z,11.00
2022-11-05T00:26:15.302Z,11.70
2022-11-05T00:28:48.350Z,10.50
2022-11-05T00:31:20.016Z,11.40
2022-11-05T00:33:51.624Z,9.80
2022-11-05T00:36:23.400Z,11.40
2022-11-05T00:38:55.040Z,11.60
2022-11-05T00:41:26.673Z,12.80
2022-11-05T00:44:15.903Z,15.70
2022-11-05T00:46:47.657Z,11.30
2022-11-05T00:49:31.248Z,12.80
2022-11-05T00:52:17.120Z,13.00
2022-11-05T00:54:48.790Z,11.50
2022-11-05T00:57:20.853Z,11.70
2022-11-05T00:59:52.544Z,15.10
2022-11-05T01:02:24.517Z,12.50
2022-11-05T01:04:56.334Z,10.70
2022-11-05T01:07:28.024Z,11.80
2022-11-05T01:09:59.624Z,12.90
2022-11-05T01:12:32.304Z,13.50
2022-11-05T01:15:04.063Z,15.10
2022-11-05T01:17:35.720Z,15.10
2022-11-05T01:20:11.257Z,16.20
2022-11-05T01:22:43.006Z,17.30
2022-11-05T01:25:14.811Z,15.90
2022-11-05T01:27:46.791Z,21.00
2022-11-05T01:30:18.520Z,16.10
2022-11-05T01:32:50.195Z,18.50
2022-11-05T01:35:21.969Z,16.50
2022-11-05T01:37:53.635Z,18.20
2022-11-05T01:40:26.729Z,15.70
2022-11-05T01:42:58.404Z,16.10
2022-11-05T01:45:30.597Z,14.50
2022-11-05T01:48:08.025Z,15.50
2022-11-05T01:50:53.517Z,13.30
2022-11-05T01:53:30.293Z,11.80
2022-11-05T01:56:04.330Z,12.90
2022-11-05T01:58:40.700Z,12.30
2022-11-05T02:01:12.832Z,12.70
2022-11-05T02:03:46.163Z,11.00
2022-11-05T02:06:18.618Z,11.00
2022-11-05T02:08:57.101Z,10.40
2022-11-05T02:11:28.961Z,10.40
2022-11-05T02:14:00.739Z,9.60
2022-11-05T02:16:42.697Z,9.70
2022-11-05T02:19:49.498Z,9.50
2022-11-05T02:22:48.493Z,8.10
2022-11-05T02:25:50.523Z,7.90
2022-11-05T02:28:44.873Z,7.60
2022-11-05T02:31:24.814Z,9.20
2022-11-05T02:34:04.030Z,8.00
2022-11-05T02:36:47.249Z,9.50
2022-11-05T02:39:32.009Z,11.20
2022-11-05T02:42:11.545Z,7.10
2022-11-05T02:44:52.640Z,10.00
2022-11-05T02:50:06.055Z,8.10
2022-11-05T02:52:50.570Z,8.70
2022-11-05T02:55:28.225Z,8.60
2022-11-05T02:58:00.823Z,7.20
2022-11-05T03:00:49.331Z,6.40
2022-11-05T03:03:35.203Z,6.50
2022-11-05T03:06:25.916Z,6.80
2022-11-05T03:09:27.613Z,4.60
2022-11-05T03:12:12.119Z,5.20
2022-11-05T03:14:53.623Z,3.70
2022-11-05T03:17:34.343Z,3.90
2022-11-05T03:20:15.251Z,4.30
2022-11-05T03:22:53.428Z,5.20
2022-11-05T03:25:30.411Z,5.00
2022-11-05T03:28:07.782Z,4.10
2022-11-05T03:30:42.207Z,4.30
2022-11-05T03:33:18.931Z,4.40
2022-11-05T03:35:54.513Z,4.80
2022-11-05T03:38:30.123Z,5.60
2022-11-05T03:41:06.058Z,4.00
2022-11-05T03:43:42.034Z,4.30
2022-11-05T03:46:22.758Z,5.90
2022-11-05T03:48:56.740Z,5.20
2022-11-05T03:51:45.290Z,5.60
2022-11-05T03:54:17.141Z,4.60
2022-11-05T03:56:58.528Z,4.30
2022-11-05T03:59:31.744Z,4.40
2022-11-05T04:02:05.377Z,7.00
2022-11-05T04:04:37.092Z,3.40
2022-11-05T04:07:27.178Z,3.20
2022-11-05T04:10:16.601Z,4.20
2022-11-05T04:13:08.944Z,3.60
2022-11-05T04:15:54.660Z,3.70
2022-11-05T04:18:26.428Z,5.20
2022-11-05T04:21:15.989Z,2.90
2022-11-05T04:24:05.258Z,3.20
2022-11-05T04:26:36.947Z,3.60
2022-11-05T04:29:27.218Z,2.80
2022-11-05T04:31:59.089Z,3.50
2022-11-05T04:34:31.144Z,4.90
2022-11-05T04:37:02.758Z,2.80
2022-11-05T04:39:34.413Z,3.80
2022-11-05T04:42:06.582Z,3.50
2022-11-05T04:44:38.506Z,3.50
2022-11-05T04:47:10.148Z,3.50
2022-11-05T04:49:41.792Z,6.20
2022-11-05T04:52:13.935Z,4.00
2022-11-05T04:54:45.756Z,3.50
2022-11-05T04:57:17.649Z,6.20
2022-11-05T04:59:52.160Z,5.50
2022-11-05T05:02:23.770Z,5.70
2022-11-05T05:04:56.014Z,6.30
2022-11-05T05:07:28.559Z,5.20
2022-11-05T05:10:00.177Z,8.70
2022-11-05T05:12:32.787Z,10.00
2022-11-05T05:15:05.372Z,6.80
2022-11-05T05:17:37.002Z,8.60
2022-11-05T05:20:32.222Z,8.70
2022-11-05T05:23:04.012Z,6.30
2022-11-05T05:25:35.769Z,5.60
2022-11-05T05:28:07.629Z,5.90
2022-11-05T05:30:39.288Z,5.10
2022-11-05T05:33:11.215Z,6.50
2022-11-05T05:35:43.104Z,4.80
2022-11-05T05:38:14.743Z,6.30
2022-11-05T05:40:46.551Z,7.70
2022-11-05T05:43:18.529Z,5.70
2022-11-05T05:45:50.694Z,6.00
2022-11-05T05:48:22.265Z,11.00
2022-11-05T05:50:53.954Z,8.40
2022-11-05T05:53:25.812Z,7.10
2022-11-05T05:55:58.107Z,9.60
2022-11-05T05:58:34.474Z,9.10
2022-11-05T06:01:15.576Z,7.20
2022-11-05T06:03:51.460Z,6.10
2022-11-05T06:06:23.113Z,9.20
2022-11-05T06:08:55.532Z,6.80
2022-11-05T06:11:27.619Z,7.20
2022-11-05T06:13:59.221Z,7.00
2022-11-05T06:16:35.573Z,11.00
2022-11-05T06:19:07.547Z,8.60
2022-11-05T06:21:39.297Z,8.00
2022-11-05T06:24:12.845Z,5.20
2022-11-05T06:26:45.212Z,8.80
2022-11-05T06:29:16.873Z,7.70
2022-11-05T06:31:48.627Z,2.90
2022-11-05T06:34:20.226Z,8.90
2022-11-05T06:36:51.869Z,10.80
2022-11-05T06:39:23.891Z,6.00
2022-11-05T06:44:47.729Z,8.90
2022-11-05T06:47:20.070Z,6.30
2022-11-05T06:49:52.028Z,9.50
2022-11-05T06:52:23.857Z,6.60
2022-11-05T06:54:55.747Z,10.10
2022-11-05T06:57:27.572Z,8.00
2022-11-05T07:00:03.303Z,6.50
2022-11-05T07:02:45.866Z,12.20
2022-11-05T07:05:18.646Z,8.30
2022-11-05T07:07:50.288Z,7.20
2022-11-05T07:10:21.913Z,10.30
2022-11-05T07:12:53.614Z,11.70
2022-11-05T07:15:25.265Z,8.30
2022-11-05T07:18:01.392Z,7.80
2022-11-05T07:20:34.468Z,9.00
2022-11-05T07:23:08.006Z,9.90
2022-11-05T07:25:40.093Z,10.00
2022-11-05T07:28:14.512Z,8.70
2022-11-05T07:30:46.471Z,11.40
2022-11-05T07:33:18.175Z,11.90
2022-11-05T07:35:49.784Z,9.90
2022-11-05T07:38:21.420Z,9.90
2022-11-05T07:40:53.157Z,10.10
2022-11-05T07:43:24.828Z,10.50
2022-11-05T07:45:56.726Z,9.50
2022-11-05T07:48:28.400Z,12.00
2022-11-05T07:51:00.038Z,11.00
2022-11-05T07:53:31.736Z,12.00
2022-11-05T07:56:03.349Z,12.20
2022-11-05T07:58:36.987Z,13.10
2022-11-05T08:01:08.802Z,13.70
2022-11-05T08:03:40.554Z,14.20
2022-11-05T08:06:12.309Z,12.40
2022-11-05T08:08:44.496Z,11.80
2022-11-05T08:11:16.265Z,12.40
2022-11-05T08:13:48.098Z,14.00
2022-11-05T08:16:20.159Z,18.10
2022-11-05T08:18:51.847Z,15.20
2022-11-05T08:21:23.395Z,12.20
2022-11-05T08:23:55.358Z,13.40
2022-11-05T08:26:27.020Z,8.50
2022-11-05T08:29:00.505Z,16.40
2022-11-05T08:31:32.198Z,16.10
2022-11-05T08:34:03.973Z,13.00
2022-11-05T08:36:37.193Z,13.70
2022-11-05T08:39:14.245Z,13.20
2022-11-05T08:41:48.470Z,14.50
2022-11-05T08:44:20.232Z,13.50
2022-11-05T08:46:52.130Z,15.30
2022-11-05T08:49:23.898Z,14.90
2022-11-05T08:51:55.578Z,11.20
2022-11-05T08:54:27.279Z,18.00
2022-11-05T08:56:58.945Z,17.40
2022-11-05T08:59:31.557Z,10.80
2022-11-05T09:02:03.357Z,15.70
2022-11-05T09:04:35.134Z,15.70
2022-11-05T09:07:06.791Z,21.70
2022-11-05T09:09:38.528Z,13.00
2022-11-05T09:12:13.135Z,11.30
2022-11-05T09:14:45.092Z,15.90
2022-11-05T09:17:21.949Z,12.40
2022-11-05T09:19:53.570Z,16.30
2022-11-05T09:22:25.188Z,15.40
2022-11-05T09:24:56.852Z,14.30
2022-11-05T09:27:28.500Z,16.20
2022-11-05T09:30:00.161Z,12.80
2022-11-05T09:32:33.147Z,11.20
2022-11-05T09:35:05.068Z,10.20
2022-11-05T09:37:37.620Z,12.00
2022-11-05T09:40:21.828Z,13.80
2022-11-05T09:42:55.235Z,12.40
2022-11-05T09:45:29.184Z,15.30
2022-11-05T09:48:05.467Z,12.80
2022-11-05T09:50:41.364Z,12.90
2022-11-05T09:53:16.955Z,15.60
2022-11-05T09:55:51.836Z,15.80
2022-11-05T09:58:29.107Z,14.40
2022-11-05T10:01:01.657Z,18.60
2022-11-05T10:03:35.601Z,15.40
2022-11-05T10:06:12.282Z,13.30
2022-11-05T10:08:46.397Z,21.20
2022-11-05T10:11:22.287Z,11.70
2022-11-05T10:13:58.051Z,13.00
2022-11-05T10:16:33.674Z,14.00
2022-11-05T10:19:09.917Z,11.70
2022-11-05T10:22:05.692Z,12.20
2022-11-05T10:24:33.680Z,12.80
2022-11-05T10:27:06.464Z,14.90
2022-11-05T10:29:38.579Z,16.90
2022-11-05T10:32:12.168Z,14.00
2022-11-05T10:34:44.860Z,18.40
2022-11-05T10:37:16.579Z,12.40
2022-11-05T10:39:48.227Z,15.60
2022-11-05T10:42:48.071Z,12.70
2022-11-05T10:45:30.334Z,17.20
2022-11-05T10:48:27.141Z,12.90
2022-11-05T10:50:59.053Z,15.30
2022-11-05T10:53:34.073Z,15.10
2022-11-05T10:56:26.211Z,11.70
2022-11-05T10:59:00.046Z,13.70
2022-11-05T11:01:32.374Z,16.80
2022-11-05T11:04:21.624Z,13.90
2022-11-05T11:06:55.717Z,13.20
2022-11-05T11:09:30.364Z,15.70
2022-11-05T11:12:15.049Z,12.90
2022-11-05T11:15:03.025Z,15.70
2022-11-05T11:17:35.077Z,15.60
2022-11-05T11:20:24.156Z,13.60
2022-11-05T11:23:14.036Z,10.80
2022-11-05T11:25:52.996Z,13.80
2022-11-05T11:28:29.691Z,10.40
2022-11-05T11:31:10.053Z,16.30
2022-11-05T11:33:45.152Z,12.40
2022-11-05T11:36:20.032Z,11.60
2022-11-05T11:38:51.794Z,11.70
2022-11-05T11:41:28.908Z,17.30
2022-11-05T11:44:05.447Z,11.30
2022-11-05T11:46:38.135Z,9.00
2022-11-05T11:49:31.149Z,14.00
2022-11-05T11:52:06.967Z,15.70
2022-11-05T11:54:38.632Z,20.30
2022-11-05T11:57:23.395Z,10.10
2022-11-05T12:00:11.806Z,11.60
2022-11-05T12:03:01.905Z,13.60
2022-11-05T12:05:46.119Z,13.80
2022-11-05T12:08:45.538Z,9.50
2022-11-05T12:11:24.814Z,10.70
2022-11-05T12:14:04.505Z,8.50
2022-11-05T12:17:00.380Z,18.20
2022-11-05T12:19:49.870Z,12.10
2022-11-05T12:22:31.672Z,12.80
2022-11-05T12:25:20.158Z,17.20
2022-11-05T12:28:24.301Z,17.00
2022-11-05T12:31:04.097Z,12.30
2022-11-05T12:33:51.626Z,12.80
2022-11-05T12:36:40.807Z,9.00
2022-11-05T12:39:30.320Z,15.00
2022-11-05T12:42:09.408Z,16.00
2022-11-05T12:44:56.310Z,15.20
2022-11-05T12:47:44.424Z,12.30
2022-11-05T12:50:23.565Z,11.10
2022-11-05T12:53:22.044Z,13.20
2022-11-05T12:55:55.093Z,9.30
2022-11-05T12:58:31.574Z,6.10
2022-11-05T13:01:07.793Z,12.90
2022-11-05T13:03:45.408Z,13.20
2022-11-05T13:06:20.405Z,9.70
2022-11-05T13:08:59.767Z,5.50
2022-11-05T13:11:35.780Z,6.60
2022-11-05T13:14:14.967Z,11.90
2022-11-05T13:16:50.599Z,13.00
2022-11-05T13:19:26.247Z,8.80
2022-11-05T13:22:07.928Z,8.30
2022-11-05T13:24:45.686Z,6.90
2022-11-05T13:27:36.063Z,17.10
2022-11-05T13:30:26.728Z,9.40
2022-11-05T13:33:03.145Z,8.00
2022-11-05T13:35:41.824Z,8.10
2022-11-05T13:38:39.047Z,6.60
2022-11-05T13:41:25.281Z,7.70
2022-11-05T13:44:24.720Z,11.60
2022-11-05T13:47:16.769Z,27.70
2022-11-05T13:50:13.186Z,7.40
2022-11-05T13:53:01.491Z,7.80
2022-11-05T13:56:10.524Z,12.40
2022-11-05T13:59:05.635Z,8.70
2022-11-05T14:01:50.433Z,10.10
2022-11-05T14:04:35.711Z,8.60
2022-11-05T14:07:13.712Z,8.80
2022-11-05T14:09:45.962Z,12.90
2022-11-05T14:12:26.666Z,10.50
2022-11-05T14:15:05.669Z,35.10
2022-11-05T14:17:57.583Z,26.90
2022-11-05T14:20:44.858Z,40.20
2022-11-05T14:23:51.961Z,20.30
2022-11-05T14:26:28.611Z,15.00
2022-11-05T14:29:37.383Z,17.20
2022-11-05T14:32:28.740Z,18.20
2022-11-05T14:35:05.603Z,18.90
2022-11-05T14:37:41.183Z,34.20
2022-11-05T14:40:37.392Z,34.90
2022-11-05T14:43:18.966Z,19.70
2022-11-05T14:46:00.690Z,23.40
2022-11-05T14:48:40.579Z,15.40
2022-11-05T14:51:32.582Z,15.30
2022-11-05T14:54:07.902Z,18.60
2022-11-05T14:56:55.907Z,22.70
2022-11-05T14:59:54.002Z,17.80
2022-11-05T15:02:28.732Z,17.40
2022-11-05T15:05:35.657Z,12.70
2022-11-05T15:08:31.056Z,17.00
2022-11-05T15:11:13.714Z,18.60
2022-11-05T15:13:59.559Z,15.80
2022-11-05T15:16:36.657Z,19.20
2022-11-05T15:19:17.770Z,13.20
2022-11-05T15:24:21.712Z,23.30
2022-11-05T15:27:02.444Z,21.60
2022-11-05T15:29:34.751Z,22.40
2022-11-05T15:32:15.996Z,30.10
2022-11-05T15:34:55.967Z,25.80
2022-11-05T15:37:29.108Z,26.10
2022-11-05T15:40:00.814Z,31.80
2022-11-05T15:42:32.825Z,29.80
2022-11-05T15:45:04.547Z,22.30
2022-11-05T15:47:36.526Z,28.80
2022-11-05T15:50:15.474Z,22.30
2022-11-05T15:53:04.820Z,28.50
2022-11-05T15:55:55.250Z,23.70
2022-11-05T15:58:28.156Z,21.60
2022-11-05T16:01:00.132Z,29.20
2022-11-05T16:03:34.902Z,26.70
2022-11-05T16:06:11.614Z,34.90
2022-11-05T16:08:49.430Z,29.70
2022-11-05T16:11:27.301Z,38.30
2022-11-05T16:14:16.362Z,51.60
2022-11-05T16:16:48.634Z,58.00
2022-11-05T16:19:42.786Z,61.30
2022-11-05T16:22:14.610Z,66.60
2022-11-05T16:24:49.333Z,56.70
2022-11-05T16:27:24.301Z,61.50
2022-11-05T16:29:58.163Z,86.10
2022-11-05T16:32:32.030Z,111.40
2022-11-05T16:35:06.358Z,106.30
2022-11-05T16:37:49.154Z,127.30
2022-11-05T16:40:29.568Z,136.80
2022-11-05T16:43:18.066Z,119.40
2022-11-05T16:45:50.072Z,113.00
2022-11-05T16:48:21.718Z,110.00
2022-11-05T16:50:54.416Z,119.70
2022-11-05T16:53:26.069Z,107.80
2022-11-05T16:55:57.731Z,108.00
2022-11-05T16:58:29.849Z,112.50
2022-11-05T17:01:05.272Z,107.60
2022-11-05T17:03:37.213Z,114.80
2022-11-05T17:06:10.862Z,103.40
2022-11-05T17:08:44.413Z,114.20
2022-11-05T17:11:19.146Z,118.60
2022-11-05T17:13:51.239Z,127.60
2022-11-05T17:16:22.870Z,121.40
2022-11-05T17:18:54.443Z,137.80
2022-11-05T17:21:26.139Z,163.10
2022-11-05T17:23:57.847Z,152.40
2022-11-05T17:26:29.614Z,150.20
2022-11-05T17:29:02.442Z,143.40
2022-11-05T17:31:34.150Z,135.50
2022-11-05T17:34:05.783Z,126.70
2022-11-05T17:36:39.690Z,134.20
2022-11-05T17:39:12.840Z,154.80
2022-11-05T17:41:44.804Z,179.90
2022-11-05T17:44:16.535Z,170.80
2022-11-05T17:46:48.154Z,172.80
2022-11-05T17:49:19.736Z,176.50
2022-11-05T17:51:51.494Z,179.20
2022-11-05T17:54:23.136Z,200.60
2022-11-05T17:56:54.794Z,189.90
2022-11-05T17:59:26.567Z,188.10
2022-11-05T18:01:58.609Z,199.50
2022-11-05T18:04:30.658Z,192.20
2022-11-05T18:07:02.382Z,196.20
2022-11-05T18:09:34.315Z,207.10
2022-11-05T18:12:08.491Z,196.40
2022-11-05T18:14:40.735Z,201.80
2022-11-05T18:17:12.442Z,195.50
2022-11-05T18:19:44.222Z,178.20
2022-11-05T18:22:18.584Z,157.50
2022-11-05T18:24:50.477Z,156.20
2022-11-05T18:27:24.610Z,147.70
2022-11-05T18:29:56.474Z,158.10
2022-11-05T18:32:28.532Z,149.00
2022-11-05T18:35:00.345Z,120.60
2022-11-05T18:37:32.089Z,138.40
2022-11-05T18:40:03.805Z,133.00
2022-11-05T18:42:35.578Z,121.80
2022-11-05T18:45:10.795Z,115.30
2022-11-05T18:47:42.611Z,127.30
2022-11-05T18:50:14.701Z,142.80
2022-11-05T18:52:46.765Z,145.70
2022-11-05T18:55:18.559Z,130.50
2022-11-05T18:57:50.368Z,127.30
2022-11-05T19:00:22.458Z,133.20
2022-11-05T19:02:54.447Z,125.80
2022-11-05T19:05:30.109Z,128.80
2022-11-05T19:08:02.361Z,124.40
2022-11-05T19:10:34.012Z,115.90
2022-11-05T19:13:05.947Z,120.20
2022-11-05T19:15:37.606Z,124.40
2022-11-05T19:18:09.422Z,120.70
2022-11-05T19:20:41.289Z,123.10
2022-11-05T19:23:13.015Z,134.20
2022-11-05T19:25:44.766Z,141.30
2022-11-05T19:28:18.969Z,144.80
2022-11-05T19:30:51.004Z,142.00
2022-11-05T19:33:22.726Z,139.60
2022-11-05T19:35:54.439Z,143.90
2022-11-05T19:38:27.225Z,149.40
2022-11-05T19:40:58.935Z,135.20
2022-11-05T19:43:30.742Z,161.70
2022-11-05T19:46:02.616Z,152.50
2022-11-05T19:48:34.522Z,154.50
2022-11-05T19:51:09.733Z,177.50
2022-11-05T19:53:42.524Z,186.70
2022-11-05T19:56:16.200Z,206.70
2022-11-05T19:58:48.190Z,202.40
2022-11-05T20:01:21.105Z,172.90
2022-11-05T20:03:53.497Z,131.50
2022-11-05T20:06:29.419Z,94.50
2022-11-05T20:11:56.698Z,80.50
2022-11-05T20:14:29.884Z,75.60
2022-11-05T20:17:01.679Z,84.10
2022-11-05T20:19:33.637Z,77.80
2022-11-05T20:22:05.425Z,63.30
2022-11-05T20:24:37.530Z,46.70
2022-11-05T20:27:09.536Z,45.10
2022-11-05T20:29:41.453Z,48.40
2022-11-05T20:32:14.320Z,50.90
2022-11-05T20:34:46.050Z,51.90
2022-11-05T20:37:17.713Z,43.00
2022-11-05T20:39:49.523Z,39.40
2022-11-05T20:42:22.776Z,42.10
2022-11-05T20:44:54.774Z,45.10
2022-11-05T20:47:26.527Z,49.30
2022-11-05T20:49:58.541Z,56.50
2022-11-05T20:52:30.743Z,46.70
2022-11-05T20:55:03.432Z,65.50
2022-11-05T20:57:35.164Z,63.10
2022-11-05T21:00:12.852Z,62.10
2022-11-05T21:02:44.616Z,60.20
2022-11-05T21:05:22.149Z,65.20
2022-11-05T21:07:54.041Z,60.90
2022-11-05T21:10:27.019Z,63.90
2022-11-05T21:12:59.217Z,60.70
2022-11-05T21:15:31.027Z,70.00
2022-11-05T21:18:02.737Z,74.70
2022-11-05T21:20:34.396Z,74.80
2022-11-05T21:23:06.208Z,72.90
2022-11-05T21:25:40.131Z,67.80
2022-11-05T21:28:13.229Z,70.10
2022-11-05T21:30:50.838Z,69.00
2022-11-05T21:33:22.487Z,67.60
2022-11-05T21:35:54.552Z,60.60
2022-11-05T21:38:26.837Z,56.50
2022-11-05T21:41:01.074Z,62.40
2022-11-05T21:43:32.834Z,61.20
2022-11-05T21:46:05.692Z,70.20
2022-11-05T21:48:37.462Z,62.20
2022-11-05T21:51:28.242Z,67.10
2022-11-05T21:54:26.167Z,69.50
2022-11-05T21:57:20.775Z,62.60
2022-11-05T21:59:57.577Z,68.00
2022-11-05T22:02:29.670Z,69.10
2022-11-05T22:05:03.273Z,76.70
2022-11-05T22:07:37.449Z,78.90
2022-11-05T22:10:16.131Z,79.80
2022-11-05T22:12:48.549Z,91.50
2022-11-05T22:15:20.493Z,80.50
2022-11-05T22:17:53.412Z,77.10
2022-11-05T22:20:25.724Z,87.10
2022-11-05T22:23:02.227Z,88.60
2022-11-05T22:25:36.574Z,102.60
2022-11-05T22:28:12.559Z,101.30
2022-11-05T22:30:53.404Z,100.50
2022-11-05T22:33:25.912Z,122.10
2022-11-05T22:35:57.529Z,127.00
2022-11-05T22:38:29.214Z,124.70
2022-11-05T22:41:01.263Z,126.40
2022-11-05T22:43:34.577Z,140.20
2022-11-05T22:46:12.658Z,205.00
2022-11-05T22:48:46.760Z,200.00
2022-11-05T22:51:20.950Z,212.20
2022-11-05T22:53:52.985Z,209.10
2022-11-05T22:56:27.116Z,208.10
2022-11-05T22:58:59.614Z,208.10
2022-11-05T23:01:31.568Z,168.80
2022-11-05T23:04:03.229Z,152.60
2022-11-05T23:06:52.832Z,140.80
2022-11-05T23:09:43.556Z,132.70
2022-11-05T23:12:24.908Z,135.80
2022-11-05T23:17:45.944Z,137.10
2022-11-05T23:20:37.155Z,127.10
2022-11-05T23:26:21.259Z,132.80
2022-11-05T23:28:53.053Z,128.80
2022-11-05T23:31:42.247Z,145.80
2022-11-05T23:34:13.880Z,120.70
2022-11-05T23:37:03.000Z,125.40
2022-11-05T23:39:39.659Z,129.10
2022-11-05T23:42:31.562Z,163.30
2022-11-05T23:45:20.707Z,182.40
2022-11-05T23:48:10.031Z,192.80
2022-11-05T23:50:42.550Z,187.40
2022-11-05T23:53:14.601Z,185.80
2022-11-05T23:55:46.705Z,156.70
2022-11-05T23:58:19.143Z,166.10
